»·PEaware :: DAL775 KPHX-KDEN

DAL775 :: KPHX-KDEN

FLIGHT INFORMATION

Flight Status: Arrived
Operator:
Delta Air Lines
More flights by this operator :: More flights under this callsign
Pilot: Kevin M. (7)
Aircraft: BOEING 737-800
(B738)
More flights by this aircraft type
Origin: KPHX Phoenix Sky Harbor Intl
United States
Destination: KDEN Denver Intl
United States
More flights between these airports :: More routes between these airports
Route: MRBIL1 YOOPR OURAY LDORA2
File this flight plan on PilotEdge
Remarks:
Altitude:
(Current/Filed)
37,000ft
Speed:
(Current/Filed)
468kts
Departed: 27-Aug-19 08:38 AM
Arrived: 27-Aug-19 09:55 AM
Distance/Time
Traveled:
522nm/1:17
Distance/Time
To Go:
Arrived

Flight Plot

Page will automatically refresh every two minutes.

Flight plan parsing failed; only flown route is shown


Map Options




Map Legend


Flown Route
Filed Route
Departure Airport
Arrival Airport
Navaid (VOR, NDB)
Fix

Horizontal Profiles

Position Reports

Time Latitude Longitude Heading Altitude Ground
Speed
27-Aug-19 08:17 33.433567 -112.008253 319 1133ft 0kts
27-Aug-19 08:18 33.433567 -112.008253 319 1133ft 0kts
27-Aug-19 08:19 33.433567 -112.008253 319 1133ft 0kts
27-Aug-19 08:20 33.433567 -112.008253 319 1133ft 0kts
27-Aug-19 08:21 33.433567 -112.008253 319 1133ft 0kts
27-Aug-19 08:22 33.433567 -112.008253 319 1133ft 0kts
27-Aug-19 08:23 33.433567 -112.008253 319 1133ft 0kts
27-Aug-19 08:24 33.433567 -112.008253 319 1133ft 0kts
27-Aug-19 08:25 33.433567 -112.008253 319 1133ft 0kts
27-Aug-19 08:26 33.433567 -112.008253 319 1133ft 0kts
27-Aug-19 08:27 33.433567 -112.008253 319 1133ft 0kts
27-Aug-19 08:28 33.433567 -112.008253 319 1133ft 0kts
27-Aug-19 08:29 33.433388 -112.008070 315 1133ft 2kts
27-Aug-19 08:30 33.433562 -112.007542 183 1133ft 0kts
27-Aug-19 08:31 33.433640 -112.007544 179 1133ft 0kts
27-Aug-19 08:32 33.433640 -112.007544 179 1133ft 0kts
27-Aug-19 08:33 33.433350 -112.007543 180 1133ft 10kts
27-Aug-19 08:34 33.432130 -112.001530 90 1126ft 32kts
27-Aug-19 08:35 33.432134 -111.993788 91 1126ft 3kts
27-Aug-19 08:36 33.431625 -111.993358 177 1126ft 11kts
27-Aug-19 08:37 33.431040 -112.011901 268 1128ft 158kts
27-Aug-19 08:38 33.431916 -112.067055 269 2931ft 185kts
27-Aug-19 08:39 33.434058 -112.142041 273 4359ft 251kts
27-Aug-19 08:40 33.482721 -112.196606 355 7071ft 268kts
27-Aug-19 08:41 33.558613 -112.189882 15 9341ft 292kts
27-Aug-19 08:42 33.635490 -112.143672 44 10746ft 346kts
27-Aug-19 08:43 33.708657 -112.051871 46 11765ft 406kts
27-Aug-19 08:44 33.783404 -111.948014 52 14403ft 420kts
27-Aug-19 08:45 33.855146 -111.834344 52 17222ft 434kts
27-Aug-19 08:46 33.929445 -111.716462 52 19830ft 449kts
27-Aug-19 08:47 34.009362 -111.598263 40 22221ft 464kts
27-Aug-19 08:48 34.117500 -111.510915 31 24448ft 478kts
27-Aug-19 08:49 34.231743 -111.423269 31 26570ft 493kts
27-Aug-19 08:50 34.347436 -111.334088 31 29257ft 492kts
27-Aug-19 08:51 34.461932 -111.245472 31 31883ft 487kts
27-Aug-19 08:52 34.575301 -111.157423 31 34141ft 484kts
27-Aug-19 08:53 34.689721 -111.074689 26 36278ft 475kts
27-Aug-19 08:54 34.805716 -110.999615 26 37171ft 470kts
27-Aug-19 08:55 34.920209 -110.924681 26 37173ft 468kts
27-Aug-19 08:56 35.035053 -110.849115 25 37173ft 470kts
27-Aug-19 08:58 35.150431 -110.772875 25 37175ft 471kts
27-Aug-19 08:59 35.265289 -110.696689 25 37175ft 471kts
27-Aug-19 09:00 35.380136 -110.620239 25 37175ft 471kts
27-Aug-19 09:01 35.494945 -110.543553 25 37175ft 471kts
27-Aug-19 09:02 35.609772 -110.466593 25 37175ft 471kts
27-Aug-19 09:03 35.710076 -110.363133 47 37185ft 478kts
27-Aug-19 09:04 35.796276 -110.239556 46 37181ft 477kts
27-Aug-19 09:05 35.883502 -110.115858 46 37194ft 477kts
27-Aug-19 09:06 35.970406 -109.992201 46 37250ft 477kts
27-Aug-19 09:07 36.057223 -109.868289 46 37291ft 478kts
27-Aug-19 09:08 36.143835 -109.744272 46 37294ft 477kts
27-Aug-19 09:09 36.230342 -109.619969 46 37294ft 477kts
27-Aug-19 09:10 36.316813 -109.495245 46 37295ft 477kts
27-Aug-19 09:11 36.403022 -109.370407 46 37295ft 477kts
27-Aug-19 09:12 36.489342 -109.244931 47 37291ft 478kts
27-Aug-19 09:13 36.575361 -109.119383 47 37250ft 478kts
27-Aug-19 09:14 36.661345 -108.993366 47 37213ft 478kts
27-Aug-19 09:15 36.747316 -108.866849 47 37219ft 479kts
27-Aug-19 09:15 36.818820 -108.761226 47 37214ft 479kts
27-Aug-19 09:17 36.918889 -108.612803 47 37221ft 479kts
27-Aug-19 09:17 36.990282 -108.506484 47 37215ft 480kts
27-Aug-19 09:19 37.090497 -108.356638 45 37222ft 484kts
27-Aug-19 09:20 37.175568 -108.228926 45 37214ft 485kts
27-Aug-19 09:20 37.247681 -108.120272 45 37255ft 485kts
27-Aug-19 09:22 37.347984 -107.968531 45 37284ft 486kts
27-Aug-19 09:22 37.419525 -107.859857 45 37285ft 485kts
27-Aug-19 09:23 37.505387 -107.728961 45 37343ft 486kts
27-Aug-19 09:24 37.591206 -107.597598 45 37349ft 486kts
27-Aug-19 09:25 37.676665 -107.466248 45 37360ft 485kts
27-Aug-19 09:26 37.762092 -107.334419 45 37384ft 486kts
27-Aug-19 09:27 37.847293 -107.202472 45 37396ft 486kts
27-Aug-19 09:28 37.932480 -107.069992 45 37404ft 486kts
27-Aug-19 09:29 38.017742 -106.936845 44 37390ft 486kts
27-Aug-19 09:30 38.102353 -106.804179 44 37391ft 485kts
27-Aug-19 09:31 38.187072 -106.670839 44 37399ft 485kts
27-Aug-19 09:32 38.275260 -106.543619 36 37401ft 477kts
27-Aug-19 09:33 38.370283 -106.426216 36 37422ft 477kts
27-Aug-19 09:34 38.465364 -106.308233 37 37436ft 477kts
27-Aug-19 09:35 38.560403 -106.189748 37 37434ft 475kts
27-Aug-19 09:36 38.650875 -106.076308 36 37416ft 456kts
27-Aug-19 09:37 38.741054 -105.962997 36 37374ft 452kts
27-Aug-19 09:38 38.830862 -105.850589 36 35951ft 453kts
27-Aug-19 09:39 38.920592 -105.737573 36 34806ft 444kts
27-Aug-19 09:40 39.010754 -105.622165 37 30831ft 473kts
27-Aug-19 09:41 39.105228 -105.500881 39 26330ft 487kts
27-Aug-19 09:42 39.198621 -105.380769 40 21844ft 459kts
27-Aug-19 09:43 39.265972 -105.251496 68 19397ft 396kts
27-Aug-19 09:44 39.293056 -105.117730 75 16647ft 368kts
27-Aug-19 09:45 39.334554 -105.003839 48 14841ft 368kts
27-Aug-19 09:46 39.401695 -104.904510 47 12534ft 365kts
27-Aug-19 09:47 39.467570 -104.808245 47 10489ft 334kts
27-Aug-19 09:48 39.527688 -104.728280 29 9031ft 289kts
27-Aug-19 09:49 39.596496 -104.676543 27 9001ft 278kts
27-Aug-19 09:50 39.667539 -104.650299 7 7937ft 270kts
27-Aug-19 09:51 39.733503 -104.642313 358 7312ft 218kts
27-Aug-19 09:52 39.787704 -104.642010 358 6161ft 176kts
27-Aug-19 09:53 39.831497 -104.641656 357 5391ft 154kts
27-Aug-19 09:54 39.852968 -104.642798 325 5336ft 40kts
27-Aug-19 09:55 39.856663 -104.648914 273 5349ft 21kts
27-Aug-19 09:56 39.856729 -104.659886 270 5423ft 41kts
27-Aug-19 09:57 39.852909 -104.663754 271 5419ft 19kts
27-Aug-19 09:58 39.852798 -104.674125 271 5393ft 11kts
27-Aug-19 09:59 39.853327 -104.674626 358 5390ft 0kts
27-Aug-19 10:00 39.853327 -104.674626 358 5390ft 0kts
27-Aug-19 10:01 39.853327 -104.674626 358 5390ft 0kts
27-Aug-19 10:02 39.853327 -104.674626 358 5390ft 0kts
27-Aug-19 10:03 39.853327 -104.674626 358 5390ft 0kts
27-Aug-19 10:04 39.853327 -104.674626 358 5390ft 0kts
27-Aug-19 10:05 39.853327 -104.674626 358 5390ft 0kts
27-Aug-19 10:06 39.853327 -104.674626 358 5390ft 0kts
27-Aug-19 10:07 39.853327 -104.674626 358 5390ft 0kts
27-Aug-19 10:08 39.853327 -104.674626 358 5390ft 0kts

Navigation Log

Ident Type
Flight plan parsing failed, navigation log unavailable